Maldives Meteorological Service

TAFS

Station TAF
VRMM
VRMM 190500Z 1906/2012 07010KT 9000 FEW019=
VRMH
VRMH 190500Z 1906/2006 09005KT 6000 FEW019=
VRMK
VRMK 190500Z 1906/2006 05006KT 9000 FEW019 TEMPO 1911/1915 FEW020CB=
VRMT
VRMT 190500Z 1906/2006 09006KT 9000 FEW018 TEMPO 1906/1914 5000 -TSRA SCT017CB=
VRMG
VRMG 190500Z 1906/2012 14006KT 9000 FEW018 TEMPO 1907/1912 5000 -SHRA FEW017CB=